sensor_id;sensor_type;location;lat;lon;timestamp;P1;durP1;ratioP1;P2;durP2;ratioP2
74124;SDS011;62475;52.192;5.396;2023-06-10T00:00:41;6.47;;;3.47;;
74124;SDS011;62475;52.192;5.396;2023-06-10T00:03:09;6.43;;;3.42;;
74124;SDS011;62475;52.192;5.396;2023-06-10T00:05:35;4.57;;;2.95;;
74124;SDS011;62475;52.192;5.396;2023-06-10T00:10:32;5.28;;;3.22;;
74124;SDS011;62475;52.192;5.396;2023-06-10T00:12:58;5.55;;;3.45;;
74124;SDS011;62475;52.192;5.396;2023-06-10T00:15:24;7.85;;;3.33;;
74124;SDS011;62475;52.192;5.396;2023-06-10T00:17:49;7.13;;;3.25;;
74124;SDS011;62475;52.192;5.396;2023-06-10T00:20:17;4.85;;;2.80;;
74124;SDS011;62475;52.192;5.396;2023-06-10T00:22:43;7.93;;;3.03;;
74124;SDS011;62475;52.192;5.396;2023-06-10T00:25:10;5.13;;;2.85;;
74124;SDS011;62475;52.192;5.396;2023-06-10T00:27:36;6.75;;;3.00;;
74124;SDS011;62475;52.192;5.396;2023-06-10T00:30:02;5.82;;;2.67;;
74124;SDS011;62475;52.192;5.396;2023-06-10T00:32:29;8.00;;;3.25;;
74124;SDS011;62475;52.192;5.396;2023-06-10T00:34:56;6.05;;;3.33;;
74124;SDS011;62475;52.192;5.396;2023-06-10T00:37:21;6.57;;;3.40;;
74124;SDS011;62475;52.192;5.396;2023-06-10T00:39:47;7.68;;;2.72;;
74124;SDS011;62475;52.192;5.396;2023-06-10T00:42:12;8.43;;;3.00;;
74124;SDS011;62475;52.192;5.396;2023-06-10T00:44:38;6.32;;;2.83;;
74124;SDS011;62475;52.192;5.396;2023-06-10T00:47:03;6.07;;;3.83;;
74124;SDS011;62475;52.192;5.396;2023-06-10T00:49:30;6.35;;;3.40;;
74124;SDS011;62475;52.192;5.396;2023-06-10T00:51:56;10.77;;;3.05;;
74124;SDS011;62475;52.192;5.396;2023-06-10T00:54:22;7.50;;;3.30;;
74124;SDS011;62475;52.192;5.396;2023-06-10T00:56:48;5.35;;;3.20;;
74124;SDS011;62475;52.192;5.396;2023-06-10T00:59:14;6.03;;;3.35;;
74124;SDS011;62475;52.192;5.396;2023-06-10T01:01:41;7.40;;;3.17;;
74124;SDS011;62475;52.192;5.396;2023-06-10T01:04:08;6.00;;;2.95;;
74124;SDS011;62475;52.192;5.396;2023-06-10T01:06:40;5.75;;;3.72;;
74124;SDS011;62475;52.192;5.396;2023-06-10T01:14:43;5.32;;;2.90;;
74124;SDS011;62475;52.192;5.396;2023-06-10T01:17:10;5.97;;;3.47;;
74124;SDS011;62475;52.192;5.396;2023-06-10T01:19:36;4.97;;;2.50;;
74124;SDS011;62475;52.192;5.396;2023-06-10T01:22:01;5.80;;;2.75;;
74124;SDS011;62475;52.192;5.396;2023-06-10T01:24:27;5.68;;;2.70;;
74124;SDS011;62475;52.192;5.396;2023-06-10T01:26:53;5.68;;;3.25;;
74124;SDS011;62475;52.192;5.396;2023-06-10T01:29:26;5.32;;;3.30;;
74124;SDS011;62475;52.192;5.396;2023-06-10T01:32:08;7.35;;;3.53;;
74124;SDS011;62475;52.192;5.396;2023-06-10T01:34:40;7.13;;;2.97;;
74124;SDS011;62475;52.192;5.396;2023-06-10T01:37:08;5.88;;;3.10;;
74124;SDS011;62475;52.192;5.396;2023-06-10T01:39:37;6.30;;;3.00;;
74124;SDS011;62475;52.192;5.396;2023-06-10T01:42:06;5.10;;;3.10;;
74124;SDS011;62475;52.192;5.396;2023-06-10T01:44:31;6.88;;;3.15;;
74124;SDS011;62475;52.192;5.396;2023-06-10T01:46:57;5.05;;;3.05;;
74124;SDS011;62475;52.192;5.396;2023-06-10T01:49:22;7.40;;;3.30;;
74124;SDS011;62475;52.192;5.396;2023-06-10T01:51:49;6.18;;;3.38;;
74124;SDS011;62475;52.192;5.396;2023-06-10T01:54:14;5.72;;;3.20;;
74124;SDS011;62475;52.192;5.396;2023-06-10T01:56:39;5.88;;;3.22;;
74124;SDS011;62475;52.192;5.396;2023-06-10T01:59:05;9.52;;;3.38;;
74124;SDS011;62475;52.192;5.396;2023-06-10T02:01:31;6.22;;;3.75;;
74124;SDS011;62475;52.192;5.396;2023-06-10T02:03:56;6.38;;;3.80;;
74124;SDS011;62475;52.192;5.396;2023-06-10T02:06:21;9.50;;;3.42;;
74124;SDS011;62475;52.192;5.396;2023-06-10T02:08:47;4.80;;;3.15;;
74124;SDS011;62475;52.192;5.396;2023-06-10T02:11:12;9.13;;;3.63;;
74124;SDS011;62475;52.192;5.396;2023-06-10T02:13:40;5.85;;;3.28;;
74124;SDS011;62475;52.192;5.396;2023-06-10T02:16:06;5.85;;;3.55;;
74124;SDS011;62475;52.192;5.396;2023-06-10T02:18:31;5.63;;;3.40;;
74124;SDS011;62475;52.192;5.396;2023-06-10T02:20:57;7.78;;;3.08;;
74124;SDS011;62475;52.192;5.396;2023-06-10T02:23:25;6.90;;;3.63;;
74124;SDS011;62475;52.192;5.396;2023-06-10T02:25:50;6.38;;;3.13;;
74124;SDS011;62475;52.192;5.396;2023-06-10T02:28:15;6.30;;;3.28;;
74124;SDS011;62475;52.192;5.396;2023-06-10T02:30:41;6.72;;;3.63;;
74124;SDS011;62475;52.192;5.396;2023-06-10T02:33:07;6.30;;;3.33;;
74124;SDS011;62475;52.192;5.396;2023-06-10T02:35:38;8.60;;;3.90;;
74124;SDS011;62475;52.192;5.396;2023-06-10T02:38:04;6.82;;;3.50;;
74124;SDS011;62475;52.192;5.396;2023-06-10T02:40:30;6.88;;;3.67;;
74124;SDS011;62475;52.192;5.396;2023-06-10T02:42:56;7.82;;;3.97;;
74124;SDS011;62475;52.192;5.396;2023-06-10T02:45:23;7.40;;;3.20;;
74124;SDS011;62475;52.192;5.396;2023-06-10T02:47:48;9.82;;;4.07;;
74124;SDS011;62475;52.192;5.396;2023-06-10T02:50:14;6.68;;;3.70;;
74124;SDS011;62475;52.192;5.396;2023-06-10T02:52:39;7.30;;;3.40;;
74124;SDS011;62475;52.192;5.396;2023-06-10T02:55:04;5.80;;;3.47;;
74124;SDS011;62475;52.192;5.396;2023-06-10T02:57:30;7.97;;;3.72;;
74124;SDS011;62475;52.192;5.396;2023-06-10T02:59:58;6.43;;;3.92;;
74124;SDS011;62475;52.192;5.396;2023-06-10T03:02:24;7.18;;;3.70;;
74124;SDS011;62475;52.192;5.396;2023-06-10T03:04:55;6.60;;;3.70;;
74124;SDS011;62475;52.192;5.396;2023-06-10T03:07:20;5.68;;;3.22;;
74124;SDS011;62475;52.192;5.396;2023-06-10T03:09:46;8.25;;;3.83;;
74124;SDS011;62475;52.192;5.396;2023-06-10T03:12:11;10.75;;;3.90;;
74124;SDS011;62475;52.192;5.396;2023-06-10T03:14:36;6.65;;;3.47;;
74124;SDS011;62475;52.192;5.396;2023-06-10T03:17:03;8.50;;;3.92;;
74124;SDS011;62475;52.192;5.396;2023-06-10T03:19:30;9.38;;;3.60;;
74124;SDS011;62475;52.192;5.396;2023-06-10T03:22:11;9.88;;;4.13;;
74124;SDS011;62475;52.192;5.396;2023-06-10T03:24:39;7.75;;;3.35;;
74124;SDS011;62475;52.192;5.396;2023-06-10T03:27:06;6.03;;;3.53;;
74124;SDS011;62475;52.192;5.396;2023-06-10T03:29:35;10.10;;;4.25;;
74124;SDS011;62475;52.192;5.396;2023-06-10T03:32:01;5.88;;;3.20;;
74124;SDS011;62475;52.192;5.396;2023-06-10T03:35:31;6.30;;;3.50;;
74124;SDS011;62475;52.192;5.396;2023-06-10T03:38:55;7.65;;;4.15;;
74124;SDS011;62475;52.192;5.396;2023-06-10T03:42:18;9.48;;;4.38;;
74124;SDS011;62475;52.192;5.396;2023-06-10T03:45:42;9.02;;;3.92;;
74124;SDS011;62475;52.192;5.396;2023-06-10T03:49:06;7.88;;;3.63;;
74124;SDS011;62475;52.192;5.396;2023-06-10T03:52:32;6.38;;;3.70;;
74124;SDS011;62475;52.192;5.396;2023-06-10T03:59:21;6.13;;;3.72;;
74124;SDS011;62475;52.192;5.396;2023-06-10T04:02:46;7.25;;;3.67;;
74124;SDS011;62475;52.192;5.396;2023-06-10T04:09:37;7.68;;;3.30;;
74124;SDS011;62475;52.192;5.396;2023-06-10T04:13:01;6.32;;;3.70;;
74124;SDS011;62475;52.192;5.396;2023-06-10T04:16:25;8.57;;;3.58;;
74124;SDS011;62475;52.192;5.396;2023-06-10T04:19:49;7.45;;;3.70;;
74124;SDS011;62475;52.192;5.396;2023-06-10T04:26:37;6.97;;;3.78;;
74124;SDS011;62475;52.192;5.396;2023-06-10T04:30:02;5.38;;;3.58;;
74124;SDS011;62475;52.192;5.396;2023-06-10T04:33:23;9.00;;;4.18;;
74124;SDS011;62475;52.192;5.396;2023-06-10T04:36:47;5.07;;;3.15;;
74124;SDS011;62475;52.192;5.396;2023-06-10T04:40:11;8.38;;;4.15;;
74124;SDS011;62475;52.192;5.396;2023-06-10T04:43:35;9.13;;;4.32;;
74124;SDS011;62475;52.192;5.396;2023-06-10T04:46:59;6.25;;;3.65;;
74124;SDS011;62475;52.192;5.396;2023-06-10T04:50:23;5.60;;;3.75;;
74124;SDS011;62475;52.192;5.396;2023-06-10T04:57:10;9.38;;;4.10;;
74124;SDS011;62475;52.192;5.396;2023-06-10T05:03:59;8.23;;;4.10;;
74124;SDS011;62475;52.192;5.396;2023-06-10T05:07:23;10.25;;;3.78;;
74124;SDS011;62475;52.192;5.396;2023-06-10T05:10:47;9.60;;;4.07;;
74124;SDS011;62475;52.192;5.396;2023-06-10T05:17:35;7.72;;;3.75;;
74124;SDS011;62475;52.192;5.396;2023-06-10T05:21:00;9.80;;;4.90;;
74124;SDS011;62475;52.192;5.396;2023-06-10T05:24:24;5.63;;;3.50;;
74124;SDS011;62475;52.192;5.396;2023-06-10T05:27:54;6.43;;;3.95;;
74124;SDS011;62475;52.192;5.396;2023-06-10T05:34:42;8.00;;;3.88;;
74124;SDS011;62475;52.192;5.396;2023-06-10T05:38:06;7.95;;;4.25;;
74124;SDS011;62475;52.192;5.396;2023-06-10T05:41:29;7.45;;;4.45;;
74124;SDS011;62475;52.192;5.396;2023-06-10T05:44:53;6.57;;;3.47;;
74124;SDS011;62475;52.192;5.396;2023-06-10T05:48:17;6.05;;;3.60;;
74124;SDS011;62475;52.192;5.396;2023-06-10T05:55:08;6.70;;;3.95;;
74124;SDS011;62475;52.192;5.396;2023-06-10T05:58:31;10.80;;;4.05;;
74124;SDS011;62475;52.192;5.396;2023-06-10T06:01:55;9.40;;;3.70;;
74124;SDS011;62475;52.192;5.396;2023-06-10T06:05:19;9.02;;;4.22;;
74124;SDS011;62475;52.192;5.396;2023-06-10T06:08:45;9.05;;;3.75;;
74124;SDS011;62475;52.192;5.396;2023-06-10T06:12:09;8.60;;;4.03;;
74124;SDS011;62475;52.192;5.396;2023-06-10T06:15:33;11.18;;;4.47;;
74124;SDS011;62475;52.192;5.396;2023-06-10T06:18:57;8.88;;;4.03;;
74124;SDS011;62475;52.192;5.396;2023-06-10T06:22:21;7.22;;;3.60;;
74124;SDS011;62475;52.192;5.396;2023-06-10T06:25:45;8.48;;;3.97;;
74124;SDS011;62475;52.192;5.396;2023-06-10T06:29:08;9.10;;;3.90;;
74124;SDS011;62475;52.192;5.396;2023-06-10T06:32:32;6.22;;;3.60;;
74124;SDS011;62475;52.192;5.396;2023-06-10T06:35:56;8.68;;;3.90;;
74124;SDS011;62475;52.192;5.396;2023-06-10T06:39:22;6.90;;;4.00;;
74124;SDS011;62475;52.192;5.396;2023-06-10T06:42:45;6.75;;;3.88;;
74124;SDS011;62475;52.192;5.396;2023-06-10T06:46:09;13.57;;;4.63;;
74124;SDS011;62475;52.192;5.396;2023-06-10T06:49:33;6.88;;;3.53;;
74124;SDS011;62475;52.192;5.396;2023-06-10T06:52:57;9.88;;;4.85;;
74124;SDS011;62475;52.192;5.396;2023-06-10T06:56:23;6.22;;;3.78;;
74124;SDS011;62475;52.192;5.396;2023-06-10T06:59:48;6.05;;;3.35;;
74124;SDS011;62475;52.192;5.396;2023-06-10T07:03:12;10.48;;;4.10;;
74124;SDS011;62475;52.192;5.396;2023-06-10T07:06:36;10.00;;;3.80;;
74124;SDS011;62475;52.192;5.396;2023-06-10T07:10:00;6.40;;;3.47;;
74124;SDS011;62475;52.192;5.396;2023-06-10T07:13:23;9.48;;;4.22;;
74124;SDS011;62475;52.192;5.396;2023-06-10T07:16:47;7.40;;;4.43;;
74124;SDS011;62475;52.192;5.396;2023-06-10T07:20:11;7.50;;;4.15;;
74124;SDS011;62475;52.192;5.396;2023-06-10T07:23:35;8.95;;;4.05;;
74124;SDS011;62475;52.192;5.396;2023-06-10T07:26:59;8.15;;;4.03;;
74124;SDS011;62475;52.192;5.396;2023-06-10T07:30:23;12.98;;;4.07;;
74124;SDS011;62475;52.192;5.396;2023-06-10T07:33:47;7.03;;;4.20;;
74124;SDS011;62475;52.192;5.396;2023-06-10T07:37:11;6.97;;;3.72;;
74124;SDS011;62475;52.192;5.396;2023-06-10T07:40:35;8.10;;;3.92;;
74124;SDS011;62475;52.192;5.396;2023-06-10T07:44:02;7.07;;;3.72;;
74124;SDS011;62475;52.192;5.396;2023-06-10T07:47:28;7.05;;;3.75;;
74124;SDS011;62475;52.192;5.396;2023-06-10T07:50:52;5.82;;;3.80;;
74124;SDS011;62475;52.192;5.396;2023-06-10T07:54:15;8.70;;;4.00;;
74124;SDS011;62475;52.192;5.396;2023-06-10T07:57:40;6.95;;;3.72;;
74124;SDS011;62475;52.192;5.396;2023-06-10T08:01:04;10.38;;;3.90;;
74124;SDS011;62475;52.192;5.396;2023-06-10T08:04:28;8.77;;;3.65;;
74124;SDS011;62475;52.192;5.396;2023-06-10T08:07:52;9.95;;;4.25;;
74124;SDS011;62475;52.192;5.396;2023-06-10T08:11:16;8.30;;;3.60;;
74124;SDS011;62475;52.192;5.396;2023-06-10T08:14:40;6.20;;;3.92;;
74124;SDS011;62475;52.192;5.396;2023-06-10T08:18:04;9.23;;;3.90;;
74124;SDS011;62475;52.192;5.396;2023-06-10T08:21:28;8.35;;;4.00;;
74124;SDS011;62475;52.192;5.396;2023-06-10T08:24:53;7.25;;;4.15;;
74124;SDS011;62475;52.192;5.396;2023-06-10T08:28:17;7.57;;;3.83;;
74124;SDS011;62475;52.192;5.396;2023-06-10T08:31:42;7.22;;;4.05;;
74124;SDS011;62475;52.192;5.396;2023-06-10T08:35:06;6.32;;;3.97;;
74124;SDS011;62475;52.192;5.396;2023-06-10T08:38:30;6.80;;;3.45;;
74124;SDS011;62475;52.192;5.396;2023-06-10T08:42:04;7.32;;;4.07;;
74124;SDS011;62475;52.192;5.396;2023-06-10T08:45:34;6.28;;;3.70;;
74124;SDS011;62475;52.192;5.396;2023-06-10T08:48:58;8.70;;;3.78;;
74124;SDS011;62475;52.192;5.396;2023-06-10T08:52:29;6.28;;;3.35;;
74124;SDS011;62475;52.192;5.396;2023-06-10T08:55:59;4.63;;;3.72;;
74124;SDS011;62475;52.192;5.396;2023-06-10T08:59:25;11.48;;;3.95;;
74124;SDS011;62475;52.192;5.396;2023-06-10T09:02:49;5.05;;;3.70;;
74124;SDS011;62475;52.192;5.396;2023-06-10T09:06:14;6.32;;;3.75;;
74124;SDS011;62475;52.192;5.396;2023-06-10T09:09:39;6.97;;;3.65;;
74124;SDS011;62475;52.192;5.396;2023-06-10T09:13:03;7.47;;;3.53;;
74124;SDS011;62475;52.192;5.396;2023-06-10T09:16:27;8.45;;;3.75;;
74124;SDS011;62475;52.192;5.396;2023-06-10T09:19:52;5.57;;;4.07;;
74124;SDS011;62475;52.192;5.396;2023-06-10T09:23:16;6.00;;;3.75;;
74124;SDS011;62475;52.192;5.396;2023-06-10T09:26:40;6.25;;;3.72;;
74124;SDS011;62475;52.192;5.396;2023-06-10T09:30:31;5.68;;;3.83;;
74124;SDS011;62475;52.192;5.396;2023-06-10T09:34:04;7.32;;;3.80;;
74124;SDS011;62475;52.192;5.396;2023-06-10T09:37:34;5.90;;;3.33;;
74124;SDS011;62475;52.192;5.396;2023-06-10T09:41:02;8.40;;;3.70;;
74124;SDS011;62475;52.192;5.396;2023-06-10T09:44:26;7.00;;;3.90;;
74124;SDS011;62475;52.192;5.396;2023-06-10T09:47:56;5.85;;;3.25;;
74124;SDS011;62475;52.192;5.396;2023-06-10T09:51:22;6.32;;;3.50;;
74124;SDS011;62475;52.192;5.396;2023-06-10T09:54:47;6.95;;;3.53;;
74124;SDS011;62475;52.192;5.396;2023-06-10T09:58:11;6.20;;;3.17;;
74124;SDS011;62475;52.192;5.396;2023-06-10T10:01:35;6.80;;;4.05;;
74124;SDS011;62475;52.192;5.396;2023-06-10T10:05:09;7.30;;;3.45;;
74124;SDS011;62475;52.192;5.396;2023-06-10T10:08:33;7.30;;;3.55;;
74124;SDS011;62475;52.192;5.396;2023-06-10T10:11:57;7.70;;;3.95;;
74124;SDS011;62475;52.192;5.396;2023-06-10T10:15:23;9.05;;;3.83;;
74124;SDS011;62475;52.192;5.396;2023-06-10T10:19:16;4.97;;;3.20;;
74124;SDS011;62475;52.192;5.396;2023-06-10T10:22:45;6.63;;;3.70;;
74124;SDS011;62475;52.192;5.396;2023-06-10T10:26:13;5.25;;;3.40;;
74124;SDS011;62475;52.192;5.396;2023-06-10T10:29:46;6.82;;;3.72;;
74124;SDS011;62475;52.192;5.396;2023-06-10T10:33:35;5.85;;;3.17;;
74124;SDS011;62475;52.192;5.396;2023-06-10T10:37:14;7.05;;;3.70;;
74124;SDS011;62475;52.192;5.396;2023-06-10T10:40:38;4.78;;;3.13;;
74124;SDS011;62475;52.192;5.396;2023-06-10T10:44:03;3.97;;;3.10;;
74124;SDS011;62475;52.192;5.396;2023-06-10T10:47:28;5.93;;;3.42;;
74124;SDS011;62475;52.192;5.396;2023-06-10T10:51:02;6.78;;;2.88;;
74124;SDS011;62475;52.192;5.396;2023-06-10T10:54:36;4.45;;;3.22;;
74124;SDS011;62475;52.192;5.396;2023-06-10T10:58:03;4.85;;;3.08;;
74124;SDS011;62475;52.192;5.396;2023-06-10T11:05:10;5.63;;;3.22;;
74124;SDS011;62475;52.192;5.396;2023-06-10T11:12:22;6.13;;;3.25;;
74124;SDS011;62475;52.192;5.396;2023-06-10T11:15:47;5.00;;;3.13;;
74124;SDS011;62475;52.192;5.396;2023-06-10T11:19:31;6.20;;;2.95;;
74124;SDS011;62475;52.192;5.396;2023-06-10T11:23:07;6.28;;;3.33;;
74124;SDS011;62475;52.192;5.396;2023-06-10T11:26:43;5.75;;;3.38;;
74124;SDS011;62475;52.192;5.396;2023-06-10T11:30:17;5.28;;;3.42;;
74124;SDS011;62475;52.192;5.396;2023-06-10T11:33:46;6.07;;;3.70;;
74124;SDS011;62475;52.192;5.396;2023-06-10T11:37:17;7.32;;;3.58;;
74124;SDS011;62475;52.192;5.396;2023-06-10T11:40:49;5.40;;;3.20;;
74124;SDS011;62475;52.192;5.396;2023-06-10T11:44:15;5.85;;;3.40;;
74124;SDS011;62475;52.192;5.396;2023-06-10T11:47:41;5.55;;;3.33;;
74124;SDS011;62475;52.192;5.396;2023-06-10T11:51:20;5.88;;;3.80;;
74124;SDS011;62475;52.192;5.396;2023-06-10T11:54:56;6.20;;;3.22;;
74124;SDS011;62475;52.192;5.396;2023-06-10T11:58:21;3.72;;;3.20;;
74124;SDS011;62475;52.192;5.396;2023-06-10T12:01:51;5.93;;;3.60;;
74124;SDS011;62475;52.192;5.396;2023-06-10T12:05:22;5.43;;;3.70;;
74124;SDS011;62475;52.192;5.396;2023-06-10T12:08:46;5.45;;;3.60;;
74124;SDS011;62475;52.192;5.396;2023-06-10T12:12:10;5.13;;;3.72;;
74124;SDS011;62475;52.192;5.396;2023-06-10T12:15:34;7.10;;;3.95;;
74124;SDS011;62475;52.192;5.396;2023-06-10T12:19:02;4.88;;;3.55;;
74124;SDS011;62475;52.192;5.396;2023-06-10T12:22:35;7.22;;;3.95;;
74124;SDS011;62475;52.192;5.396;2023-06-10T12:26:00;6.13;;;3.47;;
74124;SDS011;62475;52.192;5.396;2023-06-10T12:29:24;7.43;;;4.30;;
74124;SDS011;62475;52.192;5.396;2023-06-10T12:32:49;5.72;;;3.40;;
74124;SDS011;62475;52.192;5.396;2023-06-10T12:36:17;5.65;;;3.45;;
74124;SDS011;62475;52.192;5.396;2023-06-10T12:39:41;4.05;;;3.50;;
74124;SDS011;62475;52.192;5.396;2023-06-10T12:43:07;5.20;;;3.53;;
74124;SDS011;62475;52.192;5.396;2023-06-10T12:46:37;3.95;;;3.25;;
74124;SDS011;62475;52.192;5.396;2023-06-10T12:50:03;7.07;;;3.92;;
74124;SDS011;62475;52.192;5.396;2023-06-10T12:53:27;5.15;;;3.53;;
74124;SDS011;62475;52.192;5.396;2023-06-10T12:56:51;4.65;;;3.65;;
74124;SDS011;62475;52.192;5.396;2023-06-10T13:00:15;5.30;;;3.65;;
74124;SDS011;62475;52.192;5.396;2023-06-10T13:03:40;4.85;;;3.40;;
74124;SDS011;62475;52.192;5.396;2023-06-10T13:07:04;5.63;;;3.92;;
74124;SDS011;62475;52.192;5.396;2023-06-10T13:10:28;5.63;;;3.65;;
74124;SDS011;62475;52.192;5.396;2023-06-10T13:13:51;5.30;;;3.30;;
74124;SDS011;62475;52.192;5.396;2023-06-10T13:17:16;6.47;;;3.72;;
74124;SDS011;62475;52.192;5.396;2023-06-10T13:20:40;4.75;;;3.78;;
74124;SDS011;62475;52.192;5.396;2023-06-10T13:24:04;5.97;;;3.40;;
74124;SDS011;62475;52.192;5.396;2023-06-10T13:27:28;5.78;;;3.55;;
74124;SDS011;62475;52.192;5.396;2023-06-10T13:30:52;6.30;;;3.72;;
74124;SDS011;62475;52.192;5.396;2023-06-10T13:34:16;6.72;;;3.53;;
74124;SDS011;62475;52.192;5.396;2023-06-10T13:37:39;8.25;;;3.58;;
74124;SDS011;62475;52.192;5.396;2023-06-10T13:41:03;5.30;;;3.42;;
74124;SDS011;62475;52.192;5.396;2023-06-10T13:44:27;4.30;;;3.28;;
74124;SDS011;62475;52.192;5.396;2023-06-10T13:47:51;4.80;;;3.70;;
74124;SDS011;62475;52.192;5.396;2023-06-10T13:51:15;5.90;;;3.40;;
74124;SDS011;62475;52.192;5.396;2023-06-10T13:54:40;6.20;;;3.45;;
74124;SDS011;62475;52.192;5.396;2023-06-10T13:58:04;7.80;;;3.05;;
74124;SDS011;62475;52.192;5.396;2023-06-10T14:01:27;14.18;;;3.75;;
74124;SDS011;62475;52.192;5.396;2023-06-10T14:04:51;4.60;;;2.75;;
74124;SDS011;62475;52.192;5.396;2023-06-10T14:08:15;6.55;;;3.20;;
74124;SDS011;62475;52.192;5.396;2023-06-10T14:11:39;6.10;;;2.95;;
74124;SDS011;62475;52.192;5.396;2023-06-10T14:15:04;4.72;;;3.00;;
74124;SDS011;62475;52.192;5.396;2023-06-10T14:18:28;7.10;;;3.13;;
74124;SDS011;62475;52.192;5.396;2023-06-10T14:21:51;4.63;;;3.17;;
74124;SDS011;62475;52.192;5.396;2023-06-10T14:25:15;5.47;;;3.50;;
74124;SDS011;62475;52.192;5.396;2023-06-10T14:28:39;7.45;;;3.10;;
74124;SDS011;62475;52.192;5.396;2023-06-10T14:32:03;7.82;;;3.55;;
74124;SDS011;62475;52.192;5.396;2023-06-10T14:35:27;5.35;;;3.38;;
74124;SDS011;62475;52.192;5.396;2023-06-10T14:38:51;4.05;;;3.10;;
74124;SDS011;62475;52.192;5.396;2023-06-10T14:42:16;4.68;;;3.30;;
74124;SDS011;62475;52.192;5.396;2023-06-10T14:45:40;5.88;;;3.38;;
74124;SDS011;62475;52.192;5.396;2023-06-10T14:49:04;6.43;;;3.50;;
74124;SDS011;62475;52.192;5.396;2023-06-10T14:52:28;5.40;;;3.38;;
74124;SDS011;62475;52.192;5.396;2023-06-10T14:55:53;7.53;;;3.05;;
74124;SDS011;62475;52.192;5.396;2023-06-10T14:59:17;5.47;;;2.85;;
74124;SDS011;62475;52.192;5.396;2023-06-10T15:02:44;5.30;;;3.28;;
74124;SDS011;62475;52.192;5.396;2023-06-10T15:06:11;7.22;;;3.97;;
74124;SDS011;62475;52.192;5.396;2023-06-10T15:09:35;4.35;;;3.10;;
74124;SDS011;62475;52.192;5.396;2023-06-10T15:12:59;5.30;;;2.85;;
74124;SDS011;62475;52.192;5.396;2023-06-10T15:16:23;5.32;;;3.15;;
74124;SDS011;62475;52.192;5.396;2023-06-10T15:19:46;5.97;;;3.20;;
74124;SDS011;62475;52.192;5.396;2023-06-10T15:23:10;3.95;;;3.10;;
74124;SDS011;62475;52.192;5.396;2023-06-10T15:26:34;5.53;;;3.42;;
74124;SDS011;62475;52.192;5.396;2023-06-10T15:29:58;5.60;;;3.35;;
74124;SDS011;62475;52.192;5.396;2023-06-10T15:33:23;5.95;;;2.80;;
74124;SDS011;62475;52.192;5.396;2023-06-10T15:36:47;5.15;;;3.15;;
74124;SDS011;62475;52.192;5.396;2023-06-10T15:40:11;6.18;;;2.80;;
74124;SDS011;62475;52.192;5.396;2023-06-10T15:43:35;7.60;;;2.75;;
74124;SDS011;62475;52.192;5.396;2023-06-10T15:46:59;6.15;;;3.00;;
74124;SDS011;62475;52.192;5.396;2023-06-10T15:50:23;4.50;;;3.10;;
74124;SDS011;62475;52.192;5.396;2023-06-10T15:53:48;5.47;;;3.50;;
74124;SDS011;62475;52.192;5.396;2023-06-10T15:57:11;5.28;;;2.50;;
74124;SDS011;62475;52.192;5.396;2023-06-10T16:00:35;4.75;;;2.72;;
74124;SDS011;62475;52.192;5.396;2023-06-10T16:04:02;5.95;;;3.28;;
74124;SDS011;62475;52.192;5.396;2023-06-10T16:07:26;4.68;;;2.90;;
74124;SDS011;62475;52.192;5.396;2023-06-10T16:10:50;5.15;;;2.80;;
74124;SDS011;62475;52.192;5.396;2023-06-10T16:14:13;6.65;;;3.08;;
74124;SDS011;62475;52.192;5.396;2023-06-10T16:17:37;4.32;;;2.88;;
74124;SDS011;62475;52.192;5.396;2023-06-10T16:21:01;5.05;;;3.03;;
74124;SDS011;62475;52.192;5.396;2023-06-10T16:24:25;5.95;;;3.17;;
74124;SDS011;62475;52.192;5.396;2023-06-10T16:27:52;4.53;;;3.05;;
74124;SDS011;62475;52.192;5.396;2023-06-10T16:31:17;4.28;;;3.03;;
74124;SDS011;62475;52.192;5.396;2023-06-10T16:34:40;3.60;;;2.67;;
74124;SDS011;62475;52.192;5.396;2023-06-10T16:38:04;5.32;;;2.80;;
74124;SDS011;62475;52.192;5.396;2023-06-10T16:41:28;4.00;;;2.97;;
74124;SDS011;62475;52.192;5.396;2023-06-10T16:44:52;3.85;;;2.78;;
74124;SDS011;62475;52.192;5.396;2023-06-10T16:48:16;3.97;;;3.00;;
74124;SDS011;62475;52.192;5.396;2023-06-10T16:51:40;4.60;;;2.50;;
74124;SDS011;62475;52.192;5.396;2023-06-10T16:55:04;5.03;;;2.90;;
74124;SDS011;62475;52.192;5.396;2023-06-10T16:58:28;4.45;;;2.75;;
74124;SDS011;62475;52.192;5.396;2023-06-10T17:01:51;6.28;;;2.97;;
74124;SDS011;62475;52.192;5.396;2023-06-10T17:05:15;4.22;;;2.60;;
74124;SDS011;62475;52.192;5.396;2023-06-10T17:08:39;4.22;;;2.63;;
74124;SDS011;62475;52.192;5.396;2023-06-10T17:12:03;6.93;;;3.10;;
74124;SDS011;62475;52.192;5.396;2023-06-10T17:15:28;4.40;;;2.80;;
74124;SDS011;62475;52.192;5.396;2023-06-10T17:18:52;4.78;;;3.08;;
74124;SDS011;62475;52.192;5.396;2023-06-10T17:22:16;5.15;;;2.80;;
74124;SDS011;62475;52.192;5.396;2023-06-10T17:25:40;5.13;;;3.20;;
74124;SDS011;62475;52.192;5.396;2023-06-10T17:29:04;6.03;;;2.85;;
74124;SDS011;62475;52.192;5.396;2023-06-10T17:32:28;4.20;;;2.67;;
74124;SDS011;62475;52.192;5.396;2023-06-10T17:35:52;7.45;;;2.95;;
74124;SDS011;62475;52.192;5.396;2023-06-10T17:39:15;5.22;;;2.58;;
74124;SDS011;62475;52.192;5.396;2023-06-10T17:42:39;6.60;;;2.60;;
74124;SDS011;62475;52.192;5.396;2023-06-10T17:46:03;4.43;;;2.72;;
74124;SDS011;62475;52.192;5.396;2023-06-10T17:49:28;4.88;;;2.85;;
74124;SDS011;62475;52.192;5.396;2023-06-10T17:52:53;4.97;;;2.45;;
74124;SDS011;62475;52.192;5.396;2023-06-10T17:56:18;5.15;;;2.72;;
74124;SDS011;62475;52.192;5.396;2023-06-10T17:59:42;4.32;;;2.70;;
74124;SDS011;62475;52.192;5.396;2023-06-10T18:03:06;5.35;;;3.17;;
74124;SDS011;62475;52.192;5.396;2023-06-10T18:06:30;4.22;;;2.67;;
74124;SDS011;62475;52.192;5.396;2023-06-10T18:09:55;5.40;;;2.42;;
74124;SDS011;62475;52.192;5.396;2023-06-10T18:13:19;4.38;;;2.50;;
74124;SDS011;62475;52.192;5.396;2023-06-10T18:16:43;5.18;;;3.47;;
74124;SDS011;62475;52.192;5.396;2023-06-10T18:20:06;5.38;;;2.55;;
74124;SDS011;62475;52.192;5.396;2023-06-10T18:23:31;5.18;;;2.72;;
74124;SDS011;62475;52.192;5.396;2023-06-10T18:26:55;3.55;;;2.72;;
74124;SDS011;62475;52.192;5.396;2023-06-10T18:30:19;5.85;;;2.88;;
74124;SDS011;62475;52.192;5.396;2023-06-10T18:33:43;6.20;;;2.75;;
74124;SDS011;62475;52.192;5.396;2023-06-10T18:37:08;4.40;;;2.70;;
74124;SDS011;62475;52.192;5.396;2023-06-10T18:40:32;4.72;;;2.70;;
74124;SDS011;62475;52.192;5.396;2023-06-10T18:43:55;5.05;;;3.20;;
74124;SDS011;62475;52.192;5.396;2023-06-10T18:47:19;8.95;;;3.10;;
74124;SDS011;62475;52.192;5.396;2023-06-10T18:50:43;6.78;;;3.03;;
74124;SDS011;62475;52.192;5.396;2023-06-10T18:54:07;4.80;;;2.72;;
74124;SDS011;62475;52.192;5.396;2023-06-10T18:57:31;4.38;;;2.90;;
74124;SDS011;62475;52.192;5.396;2023-06-10T19:00:59;4.88;;;2.63;;
74124;SDS011;62475;52.192;5.396;2023-06-10T19:04:23;5.13;;;2.75;;
74124;SDS011;62475;52.192;5.396;2023-06-10T19:07:48;4.47;;;2.90;;
74124;SDS011;62475;52.192;5.396;2023-06-10T19:11:12;4.75;;;2.45;;
74124;SDS011;62475;52.192;5.396;2023-06-10T19:14:37;4.47;;;3.40;;
74124;SDS011;62475;52.192;5.396;2023-06-10T19:18:01;4.93;;;2.90;;
74124;SDS011;62475;52.192;5.396;2023-06-10T19:21:24;5.90;;;3.03;;
74124;SDS011;62475;52.192;5.396;2023-06-10T19:25:04;4.35;;;2.92;;
74124;SDS011;62475;52.192;5.396;2023-06-10T19:28:29;5.35;;;2.70;;
74124;SDS011;62475;52.192;5.396;2023-06-10T19:31:52;5.40;;;3.05;;
74124;SDS011;62475;52.192;5.396;2023-06-10T19:35:17;5.32;;;3.30;;
74124;SDS011;62475;52.192;5.396;2023-06-10T19:38:41;10.18;;;3.45;;
74124;SDS011;62475;52.192;5.396;2023-06-10T19:42:05;6.50;;;3.10;;
74124;SDS011;62475;52.192;5.396;2023-06-10T19:45:29;4.88;;;2.58;;
74124;SDS011;62475;52.192;5.396;2023-06-10T19:48:53;5.40;;;3.35;;
74124;SDS011;62475;52.192;5.396;2023-06-10T19:52:17;6.30;;;3.17;;
74124;SDS011;62475;52.192;5.396;2023-06-10T19:55:41;5.68;;;2.90;;
74124;SDS011;62475;52.192;5.396;2023-06-10T19:59:05;5.47;;;3.40;;